Time;durP1;ratioP1;P1;durP2;ratioP2;P2;SDS_P1;SDS_P2;PMS_P1;PMS_P2;Temp;Humidity;BMP_temperature;BMP_pressure;BME280_temperature;BME280_humidity;BME280_pressure;Samples;Min_cycle;Max_cycle;Signal;HPM_P1;HPM_P2
2023/09/13 00:00:10;;;;;;;11.03;4.40;;;;;;;18.88;53.36;100693.48;124462;1102;104201;-78
2023/09/13 00:03:00;;;;;;;8.35;3.77;;;;;;;18.85;53.19;100690.81;124696;1102;101833;-78
2023/09/13 00:05:29;;;;;;;11.63;4.33;;;;;;;18.83;53.48;100687.23;124657;1102;104182;-78
2023/09/13 00:07:58;;;;;;;7.47;3.80;;;;;;;18.82;52.78;100685.44;124609;1102;104214;-79
2023/09/13 00:10:27;;;;;;;7.03;3.60;;;;;;;18.79;53.37;100686.34;124672;1102;102263;-78
2023/09/13 00:12:56;;;;;;;9.83;4.10;;;;;;;18.77;53.76;100685.42;124458;1102;104067;-79
2023/09/13 00:15:24;;;;;;;9.77;3.97;;;;;;;18.76;53.55;100688.06;124557;1102;104172;-78
2023/09/13 00:17:53;;;;;;;9.80;4.15;;;;;;;18.74;53.37;100690.72;125285;1102;104169;-78
2023/09/13 00:20:22;;;;;;;7.57;3.80;;;;;;;18.68;53.82;100688.94;124530;1102;101900;-78
2023/09/13 00:22:51;;;;;;;6.67;3.67;;;;;;;18.64;54.10;100681.81;124541;1102;101949;-78
2023/09/13 00:25:19;;;;;;;6.17;3.67;;;;;;;18.63;54.06;100682.69;124599;1102;104380;-78
2023/09/13 00:27:48;;;;;;;7.13;4.30;;;;;;;18.54;54.07;100690.60;124673;1101;101858;-78
2023/09/13 00:30:17;;;;;;;9.77;4.00;;;;;;;18.50;54.38;100683.52;124494;1102;104245;-78
2023/09/13 00:32:45;;;;;;;6.83;3.90;;;;;;;18.48;54.59;100682.59;124529;1102;104173;-78
2023/09/13 00:35:14;;;;;;;8.47;3.70;;;;;;;18.46;54.39;100687.02;124451;1102;103272;-77
2023/09/13 00:37:43;;;;;;;7.50;3.85;;;;;;;18.46;54.35;100687.89;124423;1102;101987;-78
2023/09/13 00:40:12;;;;;;;9.47;4.30;;;;;;;18.44;54.35;100680.81;124564;1102;101881;-78
2023/09/13 00:42:41;;;;;;;6.77;4.13;;;;;;;18.43;54.60;100679.94;124628;1102;104217;-78
2023/09/13 00:45:12;;;;;;;7.13;4.10;;;;;;;18.43;54.78;100687.91;124610;1102;101801;-77
2023/09/13 00:47:42;;;;;;;7.83;4.07;;;;;;;18.42;54.88;100677.27;124630;1102;104172;-78
2023/09/13 00:50:15;;;;;;;9.30;4.10;;;;;;;18.40;54.58;100671.95;124578;1102;104163;-78
2023/09/13 00:52:45;;;;;;;7.75;4.08;;;;;;;18.36;54.91;100679.89;124564;1102;104351;-78
2023/09/13 00:55:16;;;;;;;9.93;4.57;;;;;;;18.31;55.06;100674.55;124563;1102;102100;-78
2023/09/13 00:57:46;;;;;;;7.10;3.90;;;;;;;18.27;55.07;100665.64;124526;1102;104189;-78
2023/09/13 01:00:18;;;;;;;8.67;4.07;;;;;;;18.24;55.17;100665.62;124556;1102;101916;-79
2023/09/13 01:02:48;;;;;;;10.83;4.60;;;;;;;18.23;55.38;100666.52;124437;1102;101942;-78
2023/09/13 01:05:17;;;;;;;7.20;4.17;;;;;;;18.23;55.43;100665.61;124492;1102;104257;-78
2023/09/13 01:07:48;;;;;;;10.57;4.67;;;;;;;18.22;55.43;100662.08;124351;1102;104259;-78
2023/09/13 01:10:18;;;;;;;6.97;4.03;;;;;;;18.21;55.59;100662.94;124537;1102;102089;-78
2023/09/13 01:12:47;;;;;;;7.07;4.30;;;;;;;18.20;55.65;100658.53;124512;1102;104200;-77
2023/09/13 01:15:16;;;;;;;6.87;3.83;;;;;;;18.19;55.59;100666.48;124372;1102;102087;-78
2023/09/13 01:17:54;;;;;;;9.97;3.80;;;;;;;18.20;55.86;100665.59;124427;1102;104230;-77
2023/09/13 01:20:35;;;;;;;9.10;4.20;;;;;;;18.20;55.82;100669.16;124415;1102;104278;-77
2023/09/13 01:23:28;;;;;;;10.30;5.03;;;;;;;18.20;55.88;100670.90;124477;1102;101842;-78
2023/09/13 01:26:37;;;;;;;8.00;4.40;;;;;;;18.20;55.90;100668.24;124625;1102;119054;-78
2023/09/13 01:29:08;;;;;;;6.67;3.67;;;;;;;18.19;56.04;100667.36;124489;1102;102258;-78
2023/09/13 01:31:37;;;;;;;9.77;4.10;;;;;;;18.17;56.42;100663.82;124583;1102;104220;-79
2023/09/13 01:34:06;;;;;;;12.03;4.20;;;;;;;18.17;56.03;100668.22;124549;1102;104173;-78
2023/09/13 01:36:34;;;;;;;9.17;4.20;;;;;;;18.14;56.15;100666.45;124433;1102;104188;-78
2023/09/13 01:39:04;;;;;;;11.33;4.40;;;;;;;18.12;56.36;100673.50;124531;1102;101964;-79
2023/09/13 01:41:45;;;;;;;7.97;3.90;;;;;;;18.10;56.44;100660.20;124440;1102;102054;-80
2023/09/13 01:44:16;;;;;;;8.77;3.90;;;;;;;18.09;56.41;100662.85;124642;1105;104316;-78
2023/09/13 01:46:47;;;;;;;9.00;4.93;;;;;;;18.09;56.63;100665.51;124632;1102;104220;-79
2023/09/13 01:49:18;;;;;;;14.50;5.47;;;;;;;18.07;56.65;100669.93;124618;1102;104220;-78
2023/09/13 01:51:48;;;;;;;9.83;4.67;;;;;;;18.04;56.67;100673.44;124809;1102;101922;-78
2023/09/13 01:54:20;;;;;;;9.27;4.17;;;;;;;18.03;56.71;100674.34;124634;1102;101872;-78
2023/09/13 01:56:48;;;;;;;10.40;4.90;;;;;;;18.00;56.63;100671.66;124563;1102;102235;-79
2023/09/13 01:59:17;;;;;;;10.70;4.73;;;;;;;17.99;56.69;100680.48;124312;1103;104252;-79
2023/09/13 02:01:46;;;;;;;12.03;4.80;;;;;;;17.95;57.12;100674.27;124466;1102;101992;-79
2023/09/13 02:04:14;;;;;;;10.87;5.10;;;;;;;17.91;57.05;100675.11;124378;1102;104841;-78
2023/09/13 02:06:43;;;;;;;11.20;4.70;;;;;;;17.86;56.99;100674.16;124497;1102;104364;-77
2023/09/13 02:09:12;;;;;;;12.03;5.27;;;;;;;17.83;57.61;100674.13;124374;1102;104248;-78
2023/09/13 02:11:41;;;;;;;11.83;5.27;;;;;;;17.79;57.26;100672.31;124562;1102;101907;-78
2023/09/13 02:14:09;;;;;;;10.03;5.03;;;;;;;17.77;57.54;100671.42;124624;1102;102097;-78
2023/09/13 02:16:38;;;;;;;14.67;5.80;;;;;;;17.74;57.39;100666.97;124482;1103;102803;-77
2023/09/13 02:19:07;;;;;;;13.90;5.20;;;;;;;17.74;57.35;100669.62;125669;1101;104463;-77
2023/09/13 02:21:35;;;;;;;13.83;5.17;;;;;;;17.72;57.39;100668.73;124529;1102;104201;-77
2023/09/13 02:24:06;;;;;;;17.33;5.63;;;;;;;17.71;57.62;100668.71;124406;1105;104664;-78
2023/09/13 02:26:35;;;;;;;14.63;5.67;;;;;;;17.69;57.41;100663.39;124604;1102;101804;-78
2023/09/13 02:29:04;;;;;;;18.73;5.70;;;;;;;17.68;57.79;100658.95;124558;1102;102205;-79
2023/09/13 02:31:34;;;;;;;13.57;5.00;;;;;;;17.67;58.07;100662.50;124606;1106;104182;-78
2023/09/13 02:34:03;;;;;;;15.90;5.60;;;;;;;17.66;58.01;100659.83;124752;1102;104194;-79
2023/09/13 02:36:32;;;;;;;11.20;5.17;;;;;;;17.64;57.85;100664.21;124652;1103;101955;-79
2023/09/13 02:39:01;;;;;;;14.47;5.10;;;;;;;17.65;58.09;100668.66;125266;1105;102141;-78
2023/09/13 02:41:29;;;;;;;11.97;5.00;;;;;;;17.63;58.53;100663.33;124409;1105;104305;-78
2023/09/13 02:43:58;;;;;;;15.67;5.70;;;;;;;17.61;58.28;100668.63;124498;1102;104208;-78
2023/09/13 02:46:27;;;;;;;11.43;5.40;;;;;;;17.58;58.45;100665.94;124513;1105;104616;-78
2023/09/13 02:48:55;;;;;;;14.17;5.20;;;;;;;17.56;58.29;100672.09;124743;1102;101926;-78
2023/09/13 02:51:27;;;;;;;13.00;5.53;;;;;;;17.54;58.65;100671.20;124385;1102;102277;-77
2023/09/13 02:53:55;;;;;;;18.20;5.53;;;;;;;17.50;58.45;100670.30;124615;1102;104186;-78
2023/09/13 02:56:24;;;;;;;16.17;5.33;;;;;;;17.48;58.26;100668.48;124784;1102;102348;-78
2023/09/13 02:58:53;;;;;;;13.70;5.60;;;;;;;17.49;58.65;100667.63;124544;1105;104280;-78
2023/09/13 03:01:22;;;;;;;14.37;5.10;;;;;;;17.46;58.55;100665.81;124499;1103;104255;-79
2023/09/13 03:03:51;;;;;;;13.60;5.30;;;;;;;17.42;58.98;100667.56;124492;1106;104249;-78
2023/09/13 03:06:20;;;;;;;11.30;5.53;;;;;;;17.40;59.07;100663.10;124454;1105;104313;-79
2023/09/13 03:08:48;;;;;;;18.07;6.10;;;;;;;17.39;58.81;100659.57;124565;1102;103195;-78
2023/09/13 03:11:19;;;;;;;21.70;6.40;;;;;;;17.39;58.90;100664.88;124553;1103;102125;-78
2023/09/13 03:13:48;;;;;;;21.93;6.67;;;;;;;17.41;58.84;100659.59;124751;1102;104364;-77
2023/09/13 03:16:18;;;;;;;24.23;6.30;;;;;;;17.38;59.12;100662.20;124585;1105;104236;-78
2023/09/13 03:18:48;;;;;;;28.50;7.13;;;;;;;17.34;59.35;100652.42;124584;1102;101962;-79
2023/09/13 03:21:19;;;;;;;21.75;6.45;;;;;;;17.32;59.25;100654.19;124542;1105;102093;-78
2023/09/13 03:23:49;;;;;;;19.10;6.37;;;;;;;17.28;59.39;100666.53;124575;1102;103661;-78
2023/09/13 03:26:20;;;;;;;22.33;6.50;;;;;;;17.24;59.04;100656.75;124488;1102;104198;-78
2023/09/13 03:28:51;;;;;;;15.27;5.87;;;;;;;17.21;59.46;100660.25;124661;1102;104271;-78
2023/09/13 03:31:21;;;;;;;18.33;5.93;;;;;;;17.17;59.47;100666.41;124679;1102;104298;-78
2023/09/13 03:33:52;;;;;;;15.53;5.57;;;;;;;17.17;59.35;100661.11;124654;1102;104172;-78
2023/09/13 03:36:22;;;;;;;13.83;5.20;;;;;;;17.14;59.51;100662.81;124528;1105;102692;-77
2023/09/13 03:38:53;;;;;;;28.47;6.50;;;;;;;17.12;59.45;100662.80;124493;1102;109497;-79
2023/09/13 03:41:25;;;;;;;37.60;7.13;;;;;;;17.11;59.86;100668.08;124473;1102;102093;-78
2023/09/13 03:43:54;;;;;;;23.93;6.07;;;;;;;17.07;60.05;100670.70;124397;1102;104166;-77
2023/09/13 03:46:23;;;;;;;15.30;6.10;;;;;;;17.08;59.57;100674.26;124375;1102;102067;-77
2023/09/13 03:48:56;;;;;;;19.97;6.03;;;;;;;17.09;60.17;100665.41;125208;1102;104274;-77
2023/09/13 03:51:25;;;;;;;16.47;5.23;;;;;;;17.09;59.71;100673.36;124555;1102;104261;-78
2023/09/13 03:53:54;;;;;;;14.40;5.55;;;;;;;17.06;60.06;100674.23;124593;1102;104271;-78
2023/09/13 03:56:23;;;;;;;16.73;5.63;;;;;;;17.05;59.79;100676.88;124553;1102;104294;-78
2023/09/13 03:58:52;;;;;;;22.87;5.97;;;;;;;17.05;59.84;100682.17;124502;1102;104179;-78
2023/09/13 04:01:21;;;;;;;18.77;6.27;;;;;;;17.05;60.21;100683.05;124609;1102;104191;-79
2023/09/13 04:03:49;;;;;;;22.57;5.57;;;;;;;17.06;60.25;100686.58;124534;1102;101846;-79
2023/09/13 04:06:18;;;;;;;26.73;6.17;;;;;;;17.07;60.20;100689.25;124620;1102;104255;-79
2023/09/13 04:08:47;;;;;;;17.47;6.20;;;;;;;17.06;60.44;100686.58;124569;1102;101918;-78
2023/09/13 04:11:15;;;;;;;14.13;5.40;;;;;;;17.05;60.29;100682.17;124423;1102;101991;-77
2023/09/13 04:13:44;;;;;;;19.50;5.93;;;;;;;17.02;60.45;100685.67;124390;1102;104142;-77
2023/09/13 04:16:15;;;;;;;22.00;6.13;;;;;;;17.00;60.77;100698.02;124311;1102;104267;-78
2023/09/13 04:18:43;;;;;;;18.23;5.73;;;;;;;17.00;60.42;100683.86;124390;1103;104217;-79
2023/09/13 04:21:12;;;;;;;15.63;5.33;;;;;;;17.04;60.83;100685.69;124565;1102;101916;-78
2023/09/13 04:23:41;;;;;;;18.10;5.70;;;;;;;17.07;61.15;100685.72;124617;1102;102396;-77
2023/09/13 04:26:09;;;;;;;20.50;5.37;;;;;;;17.11;60.71;100690.20;124449;1102;102074;-77
2023/09/13 04:28:38;;;;;;;16.40;6.00;;;;;;;17.14;60.56;100681.37;124468;1102;102101;-79
2023/09/13 04:31:07;;;;;;;15.13;5.62;;;;;;;17.17;61.01;100681.41;116045;1102;10001660;-78
2023/09/13 04:33:50;;;;;;;13.83;5.70;;;;;;;17.22;61.00;100687.68;124577;1102;104297;-78
2023/09/13 04:36:20;;;;;;;15.40;5.80;;;;;;;17.24;60.89;100684.16;124545;1102;104204;-78
2023/09/13 04:38:49;;;;;;;12.53;5.50;;;;;;;17.27;61.08;100675.35;124533;1102;104185;-77
2023/09/13 04:41:18;;;;;;;12.73;5.30;;;;;;;17.29;60.92;100681.55;124354;1105;101859;-77
2023/09/13 04:43:47;;;;;;;12.20;5.63;;;;;;;17.32;61.54;100684.23;124526;1102;104178;-75
2023/09/13 04:46:17;;;;;;;13.47;5.20;;;;;;;17.33;61.27;100683.38;124326;1102;101913;-76
2023/09/13 04:48:45;;;;;;;17.43;5.50;;;;;;;17.36;61.47;100683.41;124313;1102;101839;-77
2023/09/13 04:51:15;;;;;;;15.43;5.07;;;;;;;17.37;61.51;100681.64;124515;1102;104319;-77
2023/09/13 04:53:43;;;;;;;14.60;5.60;;;;;;;17.41;61.17;100675.50;124153;1102;104226;-76
2023/09/13 04:56:12;;;;;;;13.73;5.60;;;;;;;17.43;61.01;100679.92;124049;1102;102163;-77
2023/09/13 04:58:46;;;;;;;15.90;6.00;;;;;;;17.47;61.74;100678.22;124306;1102;101977;-76
2023/09/13 05:01:17;;;;;;;12.77;5.40;;;;;;;17.50;61.96;100672.95;124176;1102;104245;-77
2023/09/13 05:03:47;;;;;;;15.60;5.80;;;;;;;17.53;61.77;100675.62;124550;1102;102039;-78
2023/09/13 05:06:16;;;;;;;18.07;5.80;;;;;;;17.57;61.71;100674.77;124324;1102;104195;-77
2023/09/13 05:08:45;;;;;;;16.17;5.57;;;;;;;17.61;61.83;100673.05;124388;1102;102415;-76
2023/09/13 05:11:13;;;;;;;14.87;6.20;;;;;;;17.61;61.71;100673.94;124293;1102;102265;-80
2023/09/13 05:13:42;;;;;;;10.27;5.50;;;;;;;17.66;61.74;100687.24;124651;1102;104087;-76
2023/09/13 05:16:12;;;;;;;12.67;5.57;;;;;;;17.71;61.75;100684.64;124350;1102;104233;-78
2023/09/13 05:18:41;;;;;;;14.37;6.10;;;;;;;17.77;61.84;100685.57;124364;1102;104236;-77
2023/09/13 05:21:09;;;;;;;12.40;6.10;;;;;;;17.82;61.62;100684.73;125428;1101;104195;-79
2023/09/13 05:23:38;;;;;;;17.43;6.17;;;;;;;17.87;62.05;100680.34;124417;1102;101868;-78
2023/09/13 05:26:08;;;;;;;18.70;6.30;;;;;;;17.90;62.06;100676.01;124755;1102;102070;-80
2023/09/13 05:28:37;;;;;;;18.07;6.53;;;;;;;17.95;62.03;100676.92;124654;1102;102007;-78
2023/09/13 05:31:07;;;;;;;13.03;5.67;;;;;;;18.00;62.04;100676.05;124797;1102;104212;-82
2023/09/13 05:33:40;;;;;;;16.10;6.43;;;;;;;18.04;61.94;100685.83;125753;1102;104217;-82
2023/09/13 05:36:14;;;;;;;11.83;5.27;;;;;;;18.09;61.88;100682.35;126114;1101;104088;-81
2023/09/13 05:38:47;;;;;;;14.37;6.20;;;;;;;18.17;62.02;100684.16;125552;1101;104271;-81
2023/09/13 05:41:18;;;;;;;16.10;5.63;;;;;;;18.23;62.11;100682.45;125912;1102;101682;-82
2023/09/13 05:43:52;;;;;;;12.83;5.27;;;;;;;18.29;61.99;100685.16;125386;1102;104246;-84
2023/09/13 05:46:24;;;;;;;12.70;5.40;;;;;;;18.36;62.17;100685.20;124691;1102;104277;-79
2023/09/13 05:48:54;;;;;;;9.70;4.80;;;;;;;18.41;62.16;100684.33;124782;1105;104111;-79
2023/09/13 05:51:30;;;;;;;14.97;5.23;;;;;;;18.50;62.24;100683.52;125080;1102;101848;-80
2023/09/13 05:54:02;;;;;;;10.90;5.27;;;;;;;18.57;62.36;100685.30;124540;1102;101907;-76
2023/09/13 05:56:42;;;;;;;17.30;5.70;;;;;;;18.65;62.31;100688.92;124220;1101;104180;-76
2023/09/13 05:59:12;;;;;;;10.47;5.77;;;;;;;18.73;62.00;100690.70;124629;1102;102083;-78
2023/09/13 06:01:43;;;;;;;9.13;5.07;;;;;;;18.80;62.15;100684.55;125527;1102;104063;-82
2023/09/13 06:04:24;;;;;;;13.43;4.83;;;;;;;18.86;62.27;100690.81;124810;1105;104313;-82
2023/09/13 06:06:55;;;;;;;11.37;4.83;;;;;;;18.95;62.13;100692.64;125279;1105;104323;-81
2023/09/13 06:09:24;;;;;;;10.73;4.97;;;;;;;19.00;62.27;100693.54;125459;1105;101908;-81
2023/09/13 06:11:57;;;;;;;12.23;4.53;;;;;;;19.08;61.89;100690.03;125829;1102;104165;-83
2023/09/13 06:14:37;;;;;;;10.57;5.13;;;;;;;19.15;62.20;100689.16;125844;1101;102019;-80
2023/09/13 06:17:07;;;;;;;14.20;5.40;;;;;;;19.23;61.92;100692.75;124741;1105;104245;-79
2023/09/13 06:19:39;;;;;;;13.73;5.10;;;;;;;19.34;62.30;100693.66;125890;1102;102000;-80
2023/09/13 06:22:10;;;;;;;11.17;5.17;;;;;;;19.41;61.47;100694.55;125862;1101;104156;-77
2023/09/13 06:24:50;;;;;;;10.50;4.87;;;;;;;19.50;62.26;100693.70;125461;1105;104786;-78
2023/09/13 06:27:22;;;;;;;11.03;4.97;;;;;;;19.55;61.56;100695.47;125934;1101;102317;-82
2023/09/13 06:29:51;;;;;;;13.23;5.00;;;;;;;19.63;61.41;100698.14;125155;1105;101845;-79
2023/09/13 06:32:23;;;;;;;10.70;4.70;;;;;;;19.69;61.86;100697.27;124682;1105;104194;-81
2023/09/13 06:34:58;;;;;;;10.60;4.90;;;;;;;19.74;61.37;100696.41;124631;1106;102480;-81
2023/09/13 06:37:30;;;;;;;17.60;5.40;;;;;;;19.83;60.98;100698.20;124679;1102;102087;-79
2023/09/13 06:40:06;;;;;;;10.73;4.63;;;;;;;19.91;61.82;100700.88;125339;1105;101890;-82
2023/09/13 06:42:35;;;;;;;8.50;4.10;;;;;;;19.95;61.65;100700.00;125444;1105;102388;-82
2023/09/13 06:45:07;;;;;;;11.93;5.37;;;;;;;20.03;61.83;100702.66;124573;1101;101821;-77
2023/09/13 06:47:39;;;;;;;;;;;;;;;20.10;60.85;100700.00;125158;1102;101849;-80
2023/09/13 06:50:11;;;;;;;11.83;4.90;;;;;;;20.20;61.16;100702.66;124899;1105;103286;-85
2023/09/13 06:52:51;;;;;;;9.83;4.63;;;;;;;20.30;61.28;100701.75;125117;1102;107416;-80
2023/09/13 06:55:21;;;;;;;16.33;5.33;;;;;;;20.38;60.57;100707.06;125342;1102;101786;-80
2023/09/13 06:58:02;;;;;;;13.53;6.33;;;;;;;20.46;60.99;100716.84;125408;1102;102696;-81
2023/09/13 07:00:35;;;;;;;14.50;5.50;;;;;;;20.57;61.02;100711.48;125727;1102;104326;-80
2023/09/13 07:03:27;;;;;;;17.57;6.30;;;;;;;20.67;60.26;100711.50;126169;1102;117336;-86
2023/09/13 07:09:37;;;;;;;12.93;5.40;;;;;;;20.91;60.38;100713.20;125088;1105;104339;-82
2023/09/13 07:12:25;;;;;;;12.00;4.83;;;;;;;21.01;59.85;100713.16;125444;1102;104226;-87
2023/09/13 07:14:56;;;;;;;11.57;4.77;;;;;;;21.15;59.53;100707.77;125671;1104;101892;-80
2023/09/13 07:17:25;;;;;;;7.83;4.17;;;;;;;21.30;60.60;100705.91;124470;1105;102670;-75
2023/09/13 07:19:55;;;;;;;11.97;4.20;;;;;;;21.44;59.98;100701.41;125143;1101;104204;-79
2023/09/13 07:22:25;;;;;;;10.17;4.07;;;;;;;21.59;59.35;100699.56;125526;1105;101909;-82
2023/09/13 07:24:57;;;;;;;7.67;4.07;;;;;;;21.75;59.70;100701.21;125745;1102;102065;-79
2023/09/13 07:27:33;;;;;;;8.03;4.03;;;;;;;21.94;59.65;100695.73;124565;1102;102311;-79
2023/09/13 07:30:09;;;;;;;9.40;4.17;;;;;;;22.08;59.07;100693.86;124665;1102;104224;-82
2023/09/13 07:32:39;;;;;;;9.20;4.55;;;;;;;22.26;58.99;100696.33;124588;1102;104137;-81
2023/09/13 07:35:09;;;;;;;9.70;4.23;;;;;;;22.47;58.80;100690.83;124664;1102;104242;-81
2023/09/13 07:37:41;;;;;;;10.80;4.07;;;;;;;22.64;57.50;100698.67;124796;1103;104269;-84
2023/09/13 07:40:13;;;;;;;6.87;3.70;;;;;;;22.78;57.13;100694.05;124706;1105;102306;-78
2023/09/13 07:42:43;;;;;;;10.97;3.77;;;;;;;22.93;57.39;100698.34;124710;1102;102425;-84
2023/09/13 07:45:16;;;;;;;6.73;3.60;;;;;;;23.07;57.10;100691.02;125225;1105;104057;-80
2023/09/13 07:47:46;;;;;;;7.15;4.10;;;;;;;23.16;56.72;100698.09;124734;1102;101952;-83
2023/09/13 07:50:33;;;;;;;9.37;3.73;;;;;;;23.31;56.65;100696.98;125384;1102;101845;-82
2023/09/13 07:53:06;;;;;;;10.40;3.50;;;;;;;23.40;55.76;100702.20;125460;1101;101834;-82
2023/09/13 07:55:53;;;;;;;9.65;4.25;;;;;;;23.49;55.57;100695.84;125211;1102;104185;-78
2023/09/13 07:58:21;;;;;;;11.43;3.15;;;;;;;23.60;55.31;100688.53;124762;1102;102061;-78
2023/09/13 08:00:51;;;;;;;6.20;3.20;;;;;;;23.67;54.58;100683.98;125696;1102;101888;-83
2023/09/13 08:03:23;;;;;;;5.40;2.80;;;;;;;23.80;53.63;100685.55;125605;1101;104088;-80
2023/09/13 08:05:52;;;;;;;6.30;2.87;;;;;;;23.98;52.55;100684.41;124477;1102;102469;-77
2023/09/13 08:08:24;;;;;;;9.40;3.93;;;;;;;24.13;52.44;100677.00;124355;1102;104251;-76
2023/09/13 08:10:53;;;;;;;6.57;3.30;;;;;;;24.25;51.79;100673.20;124748;1102;104195;-79
2023/09/13 08:13:22;;;;;;;7.37;3.00;;;;;;;24.30;51.76;100671.34;125670;1101;101913;-81
2023/09/13 08:15:51;;;;;;;5.37;3.00;;;;;;;24.36;50.40;100658.69;124376;1102;101928;-75
2023/09/13 08:18:22;;;;;;;4.00;3.10;;;;;;;24.47;50.13;100661.17;124250;1102;104192;-79
2023/09/13 08:20:52;;;;;;;6.53;3.00;;;;;;;24.62;49.74;100662.72;124658;1102;104284;-81
2023/09/13 08:23:24;;;;;;;4.10;2.90;;;;;;;24.78;48.98;100671.34;125512;1102;101725;-84
2023/09/13 08:25:53;;;;;;;;;;;;;;;24.86;48.09;100660.44;127430;1102;101248;-83
2023/09/13 08:28:26;;;;;;;4.13;2.90;;;;;;;24.97;48.18;100657.53;126503;1101;101855;-85
2023/09/13 08:31:07;;;;;;;;;;;;;;;25.05;47.08;100659.12;126291;1102;101768;-85
2023/09/13 08:33:37;;;;;;;3.43;2.83;;;;;;;25.18;46.99;100661.53;126695;1101;101906;-83
2023/09/13 08:36:30;;;;;;;7.83;3.03;;;;;;;25.31;46.60;100663.07;125864;1105;101870;-82
2023/09/13 08:39:01;;;;;;;6.67;3.00;;;;;;;25.43;45.60;100660.11;125674;1105;104138;-79
2023/09/13 08:41:34;;;;;;;7.50;2.90;;;;;;;25.49;45.34;100653.69;125070;1102;104198;-84
2023/09/13 08:44:05;;;;;;;5.20;2.70;;;;;;;25.57;45.36;100651.72;124712;1102;104214;-87
2023/09/13 08:46:36;;;;;;;3.63;2.67;;;;;;;25.68;44.07;100656.84;125426;1102;102045;-84
2023/09/13 08:49:08;;;;;;;4.00;2.80;;;;;;;25.76;44.53;100653.97;125649;1102;101984;-85
2023/09/13 08:51:39;;;;;;;7.80;3.20;;;;;;;25.88;44.22;100650.06;126428;1101;104194;-80
2023/09/13 08:54:10;;;;;;;5.13;3.00;;;;;;;25.95;43.91;100652.56;124361;1105;101981;-83
2023/09/13 08:56:50;;;;;;;4.62;2.85;;;;;;;26.00;43.76;100644.41;125390;1102;102028;-88
2023/09/13 08:59:31;;;;;;;4.57;3.00;;;;;;;26.09;42.90;100648.67;125675;1102;104245;-85
2023/09/13 09:02:03;;;;;;;4.57;2.90;;;;;;;26.17;43.22;100643.97;126703;1101;101475;-82
2023/09/13 09:04:34;;;;;;;5.57;2.80;;;;;;;26.25;42.58;100641.95;125792;1101;104172;-85
2023/09/13 09:07:17;;;;;;;8.20;3.23;;;;;;;26.31;41.38;100638.22;126101;1105;104220;-81
2023/09/13 09:09:49;;;;;;;4.33;3.17;;;;;;;26.42;41.50;100640.62;125182;1105;102329;-77
2023/09/13 09:12:32;;;;;;;4.33;2.90;;;;;;;26.52;41.31;100643.01;125309;1105;104185;-81
2023/09/13 09:15:10;;;;;;;6.73;2.90;;;;;;;26.60;41.02;100645.48;124889;1105;102898;-80
2023/09/13 09:17:48;;;;;;;7.07;3.10;;;;;;;26.69;40.75;100628.20;125640;1102;104303;-80
2023/09/13 09:20:46;;;;;;;4.87;2.60;;;;;;;26.74;40.18;100631.66;125477;1101;101965;-79
2023/09/13 09:23:17;;;;;;;6.00;3.20;;;;;;;26.71;39.83;100629.94;125159;1103;104185;-79
2023/09/13 09:25:50;;;;;;;6.43;3.20;;;;;;;26.75;39.83;100628.02;124856;1102;104248;-80
2023/09/13 09:28:23;;;;;;;5.97;3.20;;;;;;;26.80;40.04;100628.79;124961;1105;104165;-79
2023/09/13 09:30:54;;;;;;;7.97;3.33;;;;;;;26.84;39.92;100627.75;125664;1101;101980;-80
2023/09/13 09:33:43;;;;;;;6.30;3.10;;;;;;;26.88;39.62;100623.15;125816;1102;102090;-83
2023/09/13 09:36:16;;;;;;;7.50;3.20;;;;;;;26.95;39.94;100629.25;125098;1102;104271;-81
2023/09/13 09:38:48;;;;;;;5.33;3.10;;;;;;;26.99;39.66;100625.52;125662;1102;102634;-80
2023/09/13 09:41:30;;;;;;;4.90;3.13;;;;;;;27.03;39.67;100619.13;125827;1102;102229;-84
2023/09/13 09:44:00;;;;;;;5.40;3.07;;;;;;;27.10;38.94;100620.70;125296;1102;104175;-81
2023/09/13 09:46:33;;;;;;;8.37;2.80;;;;;;;27.09;38.88;100617.11;125449;1102;110348;-84
2023/09/13 09:49:06;;;;;;;4.23;3.00;;;;;;;27.12;38.66;100610.76;125663;1102;104098;-84
2023/09/13 09:51:42;;;;;;;5.87;2.93;;;;;;;27.16;38.56;100608.84;126160;1102;101933;-81
2023/09/13 09:54:17;;;;;;;5.90;2.90;;;;;;;27.25;37.80;100603.16;124944;1103;101864;-80
2023/09/13 09:56:50;;;;;;;5.70;2.90;;;;;;;27.34;38.04;100597.52;126335;1101;101990;-82
2023/09/13 09:59:41;;;;;;;5.47;2.77;;;;;;;27.43;37.49;100593.65;125490;1102;104098;-81
2023/09/13 10:02:37;;;;;;;4.80;2.90;;;;;;;27.53;37.13;100592.39;126028;1101;104187;-80
2023/09/13 10:05:08;;;;;;;5.40;2.70;;;;;;;27.52;36.83;100598.73;126152;1101;102288;-80
2023/09/13 10:07:49;;;;;;;4.07;2.77;;;;;;;27.55;36.92;100590.55;126029;1102;101596;-84
2023/09/13 10:10:29;;;;;;;5.07;2.93;;;;;;;27.60;37.14;100593.96;126323;1102;101567;-80
2023/09/13 10:15:44;;;;;;;7.53;2.83;;;;;;;27.74;37.05;100592.63;125318;1102;102633;-83
2023/09/13 10:18:35;;;;;;;7.07;2.90;;;;;;;27.79;35.94;100582.56;125338;1100;104399;-80
2023/09/13 10:21:20;;;;;;;5.70;2.87;;;;;;;27.86;35.78;100581.42;124711;1102;104358;-81
2023/09/13 10:24:03;;;;;;;4.53;2.50;;;;;;;27.87;35.97;100572.37;125482;1102;101847;-82
2023/09/13 10:26:35;;;;;;;4.30;2.80;;;;;;;27.89;36.12;100578.62;126398;1101;102401;-80
2023/09/13 10:29:12;;;;;;;5.17;2.87;;;;;;;27.90;35.87;100577.66;125392;1101;102243;-82
2023/09/13 10:31:51;;;;;;;6.67;2.97;;;;;;;27.90;35.71;100577.66;125969;1101;101962;-82
2023/09/13 10:34:26;;;;;;;6.23;2.87;;;;;;;27.90;35.76;100574.09;125200;1102;101843;-80
2023/09/13 10:37:09;;;;;;;6.50;2.77;;;;;;;27.94;35.32;100578.42;126142;1101;104245;-81
2023/09/13 10:39:49;;;;;;;8.40;3.20;;;;;;;28.00;35.65;100561.19;125317;1102;104208;-79
2023/09/13 10:42:23;;;;;;;5.65;3.00;;;;;;;28.00;35.70;100570.16;125736;1102;101804;-79
2023/09/13 10:44:54;;;;;;;6.73;2.80;;;;;;;28.06;35.05;100569.06;125344;1102;104135;-79
2023/09/13 10:47:25;;;;;;;5.50;2.90;;;;;;;28.06;35.29;100564.54;125230;1103;102115;-82
2023/09/13 10:50:01;;;;;;;8.73;3.20;;;;;;;28.15;35.30;100557.95;126356;1101;104144;-82
2023/09/13 10:52:42;;;;;;;9.40;3.25;;;;;;;28.18;35.41;100555.13;125458;1101;101770;-80
2023/09/13 10:55:13;;;;;;;12.70;3.20;;;;;;;28.21;35.73;100552.33;125358;1105;102011;-79
2023/09/13 10:57:56;;;;;;;4.27;2.70;;;;;;;28.25;34.99;100555.78;125431;1102;102317;-77
2023/09/13 11:00:29;;;;;;;5.83;2.90;;;;;;;28.25;35.46;100551.28;124607;1102;104358;-80
2023/09/13 11:03:14;;;;;;;11.50;3.35;;;;;;;28.26;35.21;100555.72;126331;1101;101745;-82
2023/09/13 11:06:04;;;;;;;8.87;3.20;;;;;;;28.26;35.44;100547.62;125781;1102;104060;-87
2023/09/13 11:08:39;;;;;;;9.60;3.27;;;;;;;28.25;35.30;100543.19;125310;1102;102080;-85
2023/09/13 11:11:16;;;;;;;8.73;3.73;;;;;;;28.26;35.27;100542.23;125220;1102;102039;-80
2023/09/13 11:14:03;;;;;;;6.10;2.90;;;;;;;28.30;35.38;100543.02;125211;1102;101831;-80
2023/09/13 11:16:40;;;;;;;8.45;3.25;;;;;;;28.36;35.43;100544.59;125185;1102;104171;-80
2023/09/13 11:19:26;;;;;;;12.90;3.33;;;;;;;28.33;35.06;100535.69;125026;1102;104162;-79
2023/09/13 11:22:01;;;;;;;11.23;3.50;;;;;;;28.40;35.35;100544.42;124858;1102;104236;-80
2023/09/13 11:24:52;;;;;;;7.10;3.23;;;;;;;28.49;35.28;100535.97;125108;1102;104232;-80
2023/09/13 11:27:49;;;;;;;5.90;3.20;;;;;;;28.55;35.35;100532.17;125751;1102;101954;-81
2023/09/13 11:30:57;;;;;;;9.07;3.20;;;;;;;28.61;35.20;100533.77;125653;1105;104173;-83
2023/09/13 11:33:56;;;;;;;7.27;3.30;;;;;;;28.65;35.30;100527.31;124874;1102;104220;-78
2023/09/13 11:36:27;;;;;;;11.80;3.50;;;;;;;28.66;35.11;100521.86;124221;1104;104166;-77
2023/09/13 11:39:00;;;;;;;8.50;3.13;;;;;;;28.62;35.07;100522.91;124137;1102;101932;-78